createdAt,value
2024-05-09T00:00:10.478Z,17.97
2024-05-09T00:01:18.184Z,18.05
2024-05-09T00:02:20.700Z,17.88
2024-05-09T00:03:25.838Z,17.34
2024-05-09T00:04:28.389Z,17.32
2024-05-09T00:05:34.012Z,17.67
2024-05-09T00:06:37.020Z,17.77
2024-05-09T00:07:42.100Z,17.50
2024-05-09T00:08:45.163Z,17.46
2024-05-09T00:09:50.918Z,17.37
2024-05-09T00:10:56.488Z,17.40
2024-05-09T00:12:01.920Z,17.26
2024-05-09T00:13:05.115Z,17.13
2024-05-09T00:14:10.448Z,17.41
2024-05-09T00:15:12.894Z,17.31
2024-05-09T00:16:18.003Z,17.59
2024-05-09T00:17:20.876Z,17.56
2024-05-09T00:18:26.296Z,17.77
2024-05-09T00:19:29.072Z,17.66
2024-05-09T00:20:39.041Z,17.67
2024-05-09T00:21:43.560Z,17.58
2024-05-09T00:22:49.043Z,17.62
2024-05-09T00:23:51.575Z,17.45
2024-05-09T00:24:57.095Z,17.46
2024-05-09T00:26:02.378Z,17.56
2024-05-09T00:27:09.069Z,17.53
2024-05-09T00:28:13.178Z,17.32
2024-05-09T00:29:18.411Z,17.36
2024-05-09T00:30:27.998Z,17.51
2024-05-09T00:31:38.436Z,17.31
2024-05-09T00:32:41.003Z,17.50
2024-05-09T00:33:46.330Z,17.31
2024-05-09T00:34:48.995Z,17.43
2024-05-09T00:35:54.450Z,17.75
2024-05-09T00:36:56.923Z,17.61
2024-05-09T00:38:02.425Z,17.56
2024-05-09T00:39:04.956Z,17.53
2024-05-09T00:40:18.318Z,17.41
2024-05-09T00:41:28.015Z,17.75
2024-05-09T00:42:33.404Z,17.95
2024-05-09T00:43:35.840Z,17.95
2024-05-09T00:44:40.929Z,17.73
2024-05-09T00:45:43.876Z,17.70
2024-05-09T00:46:54.677Z,17.52
2024-05-09T00:47:58.478Z,17.61
2024-05-09T00:49:05.560Z,17.62
2024-05-09T00:50:12.860Z,17.56
2024-05-09T00:51:24.254Z,17.50
2024-05-09T00:52:27.927Z,17.44
2024-05-09T00:53:34.115Z,17.19
2024-05-09T00:54:36.983Z,17.00
2024-05-09T00:55:43.168Z,17.02
2024-05-09T00:56:49.874Z,17.25
2024-05-09T00:57:55.359Z,17.08
2024-05-09T00:58:58.006Z,17.24
2024-05-09T01:00:04.720Z,17.02
2024-05-09T01:01:09.266Z,17.04
2024-05-09T01:02:14.977Z,17.03
2024-05-09T01:03:18.331Z,16.94
2024-05-09T01:04:23.902Z,16.99
2024-05-09T01:05:26.444Z,16.97
2024-05-09T01:06:31.698Z,16.91
2024-05-09T01:07:34.352Z,17.03
2024-05-09T01:08:39.578Z,17.20
2024-05-09T01:09:42.189Z,17.14
2024-05-09T01:10:48.691Z,17.26
2024-05-09T01:11:54.349Z,17.01
2024-05-09T01:12:59.649Z,17.26
2024-05-09T01:14:02.261Z,17.40
2024-05-09T01:15:07.857Z,17.40
2024-05-09T01:16:10.314Z,17.43
2024-05-09T01:17:15.654Z,17.35
2024-05-09T01:18:18.540Z,16.78
2024-05-09T01:19:31.406Z,16.52
2024-05-09T01:20:41.093Z,16.82
2024-05-09T01:21:48.868Z,16.79
2024-05-09T01:22:52.995Z,16.71
2024-05-09T01:24:01.119Z,16.96
2024-05-09T01:25:03.935Z,17.03
2024-05-09T01:26:09.135Z,17.24
2024-05-09T01:27:15.764Z,16.93
2024-05-09T01:28:21.286Z,16.82
2024-05-09T01:29:23.915Z,17.06
2024-05-09T01:30:34.729Z,16.69
2024-05-09T01:31:39.956Z,16.54
2024-05-09T01:32:46.309Z,16.64
2024-05-09T01:33:49.261Z,16.85
2024-05-09T01:34:54.639Z,16.98
2024-05-09T01:35:57.614Z,16.87
2024-05-09T01:37:02.829Z,16.90
2024-05-09T01:38:05.728Z,17.10
2024-05-09T01:39:13.892Z,16.86
2024-05-09T01:40:22.007Z,16.83
2024-05-09T01:41:30.060Z,17.12
2024-05-09T01:42:32.754Z,17.28
2024-05-09T01:43:40.072Z,17.14
2024-05-09T01:44:43.617Z,17.10
2024-05-09T01:45:49.319Z,17.08
2024-05-09T01:46:52.163Z,16.99
2024-05-09T01:47:54.855Z,17.10
2024-05-09T01:49:00.055Z,17.03
2024-05-09T01:50:03.301Z,17.18
2024-05-09T01:51:08.979Z,17.24
2024-05-09T01:52:11.848Z,17.40
2024-05-09T01:53:17.687Z,17.61
2024-05-09T01:54:23.122Z,17.35
2024-05-09T01:55:28.473Z,17.25
2024-05-09T01:56:31.208Z,17.34
2024-05-09T01:57:36.334Z,17.50
2024-05-09T01:58:38.882Z,17.64
2024-05-09T01:59:43.946Z,17.58
2024-05-09T02:00:46.435Z,17.50
2024-05-09T02:01:56.823Z,17.43
2024-05-09T02:03:00.737Z,17.35
2024-05-09T02:04:06.536Z,17.08
2024-05-09T02:05:09.548Z,17.27
2024-05-09T02:06:14.907Z,17.17
2024-05-09T02:07:18.357Z,16.85
2024-05-09T02:08:24.427Z,17.03
2024-05-09T02:09:29.523Z,17.21
2024-05-09T02:10:34.668Z,17.41
2024-05-09T02:11:41.567Z,17.47
2024-05-09T02:12:47.114Z,17.44
2024-05-09T02:13:49.598Z,17.56
2024-05-09T02:14:54.935Z,17.58
2024-05-09T02:15:57.337Z,17.63
2024-05-09T02:17:02.662Z,17.73
2024-05-09T02:18:05.927Z,17.83
2024-05-09T02:19:11.602Z,17.71
2024-05-09T02:20:22.573Z,17.57
2024-05-09T02:21:34.366Z,17.54
2024-05-09T02:22:37.367Z,17.61
2024-05-09T02:23:43.090Z,17.58
2024-05-09T02:24:48.324Z,17.34
2024-05-09T02:25:53.452Z,16.87
2024-05-09T02:26:56.005Z,16.77
2024-05-09T02:28:01.110Z,17.06
2024-05-09T02:29:03.641Z,17.13
2024-05-09T02:30:18.743Z,17.05
2024-05-09T02:31:28.476Z,16.87
2024-05-09T02:32:31.228Z,16.90
2024-05-09T02:33:36.714Z,16.89
2024-05-09T02:34:39.625Z,16.74
2024-05-09T02:35:43.967Z,16.69
2024-05-09T02:36:49.476Z,16.72
2024-05-09T02:37:51.892Z,16.79
2024-05-09T02:38:54.486Z,16.80
2024-05-09T02:40:03.399Z,16.85
2024-05-09T02:41:06.189Z,16.86
2024-05-09T02:42:08.582Z,16.93
2024-05-09T02:43:12.975Z,16.84
2024-05-09T02:44:18.522Z,16.56
2024-05-09T02:45:20.989Z,16.53
2024-05-09T02:46:23.486Z,16.70
2024-05-09T02:47:28.804Z,16.31
2024-05-09T02:48:31.551Z,16.39
2024-05-09T02:49:34.285Z,16.22
2024-05-09T02:50:39.347Z,16.09
2024-05-09T02:51:45.244Z,16.15
2024-05-09T02:52:47.739Z,15.89
2024-05-09T02:53:50.351Z,15.94
2024-05-09T02:54:52.820Z,16.16
2024-05-09T02:56:00.885Z,16.15
2024-05-09T02:57:03.578Z,16.11
2024-05-09T02:58:07.542Z,16.20
2024-05-09T02:59:10.080Z,16.33
2024-05-09T03:00:22.590Z,16.39
2024-05-09T03:01:29.584Z,16.35
2024-05-09T03:02:32.283Z,16.43
2024-05-09T03:03:34.981Z,16.14
2024-05-09T03:04:40.674Z,16.06
2024-05-09T03:05:43.708Z,16.02
2024-05-09T03:06:46.377Z,15.89
2024-05-09T03:07:48.955Z,15.78
2024-05-09T03:08:54.710Z,15.92
2024-05-09T03:09:57.179Z,15.83
2024-05-09T03:11:02.439Z,15.81
2024-05-09T03:12:08.516Z,15.53
2024-05-09T03:13:14.109Z,15.66
2024-05-09T03:14:18.359Z,15.63
2024-05-09T03:15:22.695Z,15.50
2024-05-09T03:16:27.947Z,15.79
2024-05-09T03:17:30.735Z,15.56
2024-05-09T03:18:33.458Z,15.58
2024-05-09T03:19:37.085Z,15.56
2024-05-09T03:20:44.247Z,15.60
2024-05-09T03:21:47.064Z,15.57
2024-05-09T03:22:50.413Z,15.57
2024-05-09T03:23:53.728Z,15.61
2024-05-09T03:24:58.981Z,15.69
2024-05-09T03:26:09.951Z,15.78
2024-05-09T03:27:12.931Z,15.86
2024-05-09T03:28:15.424Z,15.96
2024-05-09T03:29:20.810Z,16.02
2024-05-09T03:30:35.934Z,16.20
2024-05-09T03:31:43.733Z,15.95
2024-05-09T03:32:49.131Z,16.03
2024-05-09T03:33:51.957Z,16.28
2024-05-09T03:34:54.460Z,16.41
2024-05-09T03:35:56.924Z,16.41
2024-05-09T03:37:02.026Z,16.23
2024-05-09T03:38:04.962Z,16.27
2024-05-09T03:39:09.427Z,16.14
2024-05-09T03:40:23.353Z,16.32
2024-05-09T03:41:31.691Z,15.99
2024-05-09T03:42:40.884Z,15.59
2024-05-09T03:43:44.936Z,15.70
2024-05-09T03:44:50.052Z,16.05
2024-05-09T03:45:52.479Z,15.76
2024-05-09T03:46:55.117Z,15.95
2024-05-09T03:47:57.704Z,16.13
2024-05-09T03:49:02.979Z,16.37
2024-05-09T03:50:11.978Z,16.43
2024-05-09T03:51:17.481Z,16.21
2024-05-09T03:52:19.932Z,16.27
2024-05-09T03:53:25.620Z,16.37
2024-05-09T03:54:28.277Z,16.42
2024-05-09T03:55:31.328Z,16.52
2024-05-09T03:56:38.192Z,16.60
2024-05-09T03:57:43.313Z,16.70
2024-05-09T03:58:45.962Z,16.83
2024-05-09T03:59:48.404Z,16.55
2024-05-09T04:00:50.976Z,16.55
2024-05-09T04:01:56.357Z,16.13
2024-05-09T04:02:59.940Z,15.94
2024-05-09T04:04:02.507Z,16.11
2024-05-09T04:05:05.329Z,15.94
2024-05-09T04:06:10.459Z,16.13
2024-05-09T04:07:12.879Z,16.01
2024-05-09T04:08:15.800Z,15.40
2024-05-09T04:09:18.445Z,15.06
2024-05-09T04:10:30.151Z,15.31
2024-05-09T04:11:38.456Z,15.63
2024-05-09T04:12:41.007Z,15.79
2024-05-09T04:13:43.533Z,15.89
2024-05-09T04:14:48.552Z,15.94
2024-05-09T04:15:50.928Z,15.92
2024-05-09T04:16:53.494Z,15.83
2024-05-09T04:17:56.291Z,15.31
2024-05-09T04:19:01.625Z,15.10
2024-05-09T04:20:08.309Z,15.18
2024-05-09T04:21:11.040Z,15.18
2024-05-09T04:22:13.949Z,15.15
2024-05-09T04:23:16.513Z,15.31
2024-05-09T04:24:21.633Z,15.17
2024-05-09T04:25:24.064Z,14.97
2024-05-09T04:26:26.532Z,15.06
2024-05-09T04:27:31.764Z,14.97
2024-05-09T04:28:37.135Z,14.80
2024-05-09T04:29:40.414Z,14.50
2024-05-09T04:30:43.362Z,14.66
2024-05-09T04:31:48.778Z,15.04
2024-05-09T04:32:51.527Z,15.18
2024-05-09T04:33:54.252Z,15.33
2024-05-09T04:34:59.598Z,15.24
2024-05-09T04:36:02.161Z,15.17
2024-05-09T04:37:05.071Z,15.14
2024-05-09T04:38:11.203Z,14.84
2024-05-09T04:39:13.864Z,14.94
2024-05-09T04:40:24.326Z,14.98
2024-05-09T04:41:36.478Z,15.03
2024-05-09T04:42:43.244Z,15.03
2024-05-09T04:43:45.728Z,15.11
2024-05-09T04:44:48.898Z,15.08
2024-05-09T04:45:54.005Z,15.15
2024-05-09T04:46:56.506Z,15.32
2024-05-09T04:47:59.292Z,15.34
2024-05-09T04:49:02.140Z,15.29
2024-05-09T04:50:08.852Z,15.22
2024-05-09T04:51:16.561Z,15.17
2024-05-09T04:52:19.068Z,15.14
2024-05-09T04:53:21.613Z,15.29
2024-05-09T04:54:34.137Z,15.55
2024-05-09T04:55:39.389Z,15.34
2024-05-09T04:56:42.177Z,15.31
2024-05-09T04:57:47.409Z,15.34
2024-05-09T04:58:52.584Z,15.40
2024-05-09T04:59:55.926Z,15.22
2024-05-09T05:00:59.768Z,15.27
2024-05-09T05:02:02.595Z,15.17
2024-05-09T05:05:30.822Z,15.08
2024-05-09T05:06:39.266Z,14.99
2024-05-09T05:07:42.363Z,15.11
2024-05-09T05:08:48.451Z,15.16
2024-05-09T05:10:56.216Z,14.75
2024-05-09T05:11:59.865Z,14.56
2024-05-09T05:13:23.950Z,14.81
2024-05-09T05:14:27.251Z,14.78
2024-05-09T05:15:29.817Z,14.72
2024-05-09T05:16:35.192Z,14.62
2024-05-09T05:17:38.052Z,14.49
2024-05-09T05:18:40.666Z,14.54
2024-05-09T05:19:43.523Z,14.54
2024-05-09T05:20:48.790Z,14.67
2024-05-09T05:21:51.310Z,14.63
2024-05-09T05:22:53.793Z,14.74
2024-05-09T05:23:59.052Z,14.65
2024-05-09T05:25:01.519Z,14.89
2024-05-09T05:26:04.194Z,14.78
2024-05-09T05:27:06.872Z,15.05
2024-05-09T05:28:14.733Z,15.37
2024-05-09T05:29:20.263Z,15.34
2024-05-09T05:30:29.001Z,15.37
2024-05-09T05:31:38.379Z,15.46
2024-05-09T05:32:40.971Z,15.46
2024-05-09T05:33:43.616Z,15.43
2024-05-09T05:34:46.318Z,15.46
2024-05-09T05:35:51.501Z,15.59
2024-05-09T05:36:54.623Z,15.36
2024-05-09T05:37:57.128Z,15.53
2024-05-09T05:38:59.612Z,15.65
2024-05-09T05:40:05.789Z,15.73
2024-05-09T05:41:08.370Z,15.84
2024-05-09T05:42:12.164Z,15.92
2024-05-09T05:43:19.518Z,15.83
2024-05-09T05:44:24.783Z,15.76
2024-05-09T05:45:27.549Z,15.89
2024-05-09T05:46:30.187Z,15.71
2024-05-09T05:47:33.037Z,15.76
2024-05-09T05:48:38.359Z,15.66
2024-05-09T05:49:41.093Z,15.67
2024-05-09T05:50:43.885Z,15.72
2024-05-09T05:51:46.318Z,15.67
2024-05-09T05:52:51.452Z,15.56
2024-05-09T05:53:55.342Z,15.51
2024-05-09T05:54:58.076Z,15.55
2024-05-09T05:56:03.508Z,15.51
2024-05-09T05:57:06.142Z,15.65
2024-05-09T05:58:09.837Z,15.83
2024-05-09T05:59:15.571Z,16.02
2024-05-09T06:00:29.394Z,16.10
2024-05-09T06:01:37.984Z,16.17
2024-05-09T06:02:40.802Z,16.32
2024-05-09T06:03:46.358Z,16.44
2024-05-09T06:04:49.247Z,16.50
2024-05-09T06:05:52.026Z,16.68
2024-05-09T06:06:54.654Z,16.72
2024-05-09T06:07:59.818Z,16.81
2024-05-09T06:09:02.569Z,16.79
2024-05-09T06:10:09.183Z,16.90
2024-05-09T06:11:14.085Z,17.24
2024-05-09T06:12:19.523Z,17.39
2024-05-09T06:13:22.141Z,17.60
2024-05-09T06:14:27.322Z,17.71
2024-05-09T06:15:29.822Z,17.62
2024-05-09T06:16:35.120Z,17.59
2024-05-09T06:17:37.794Z,17.69
2024-05-09T06:18:40.604Z,17.85
2024-05-09T06:19:43.285Z,17.79
2024-05-09T06:20:48.465Z,17.80
2024-05-09T06:21:51.088Z,18.00
2024-05-09T06:22:53.567Z,18.03
2024-05-09T06:23:56.115Z,17.91
2024-05-09T06:25:04.524Z,17.76
2024-05-09T06:26:07.066Z,17.97
2024-05-09T06:27:09.892Z,18.24
2024-05-09T06:28:12.374Z,18.20
2024-05-09T06:29:17.591Z,18.13
2024-05-09T06:30:30.093Z,18.29
2024-05-09T06:31:40.452Z,18.55
2024-05-09T06:32:46.442Z,18.79
2024-05-09T06:33:49.163Z,18.90
2024-05-09T06:34:52.190Z,18.98
2024-05-09T06:35:59.345Z,18.89
2024-05-09T06:37:04.475Z,18.79
2024-05-09T06:38:09.228Z,18.82
2024-05-09T06:39:12.133Z,18.75
2024-05-09T06:40:17.759Z,19.04
2024-05-09T06:41:30.245Z,19.17
2024-05-09T06:42:32.903Z,19.09
2024-05-09T06:43:35.555Z,18.77
2024-05-09T06:44:40.692Z,18.85
2024-05-09T06:45:47.177Z,18.85
2024-05-09T06:46:49.988Z,19.00
2024-05-09T06:47:55.842Z,18.91
2024-05-09T06:49:04.574Z,18.94
2024-05-09T06:50:13.348Z,18.98
2024-05-09T06:51:23.284Z,18.84
2024-05-09T06:52:28.372Z,19.14
2024-05-09T06:53:31.172Z,19.15
2024-05-09T06:54:33.558Z,19.17
2024-05-09T06:55:36.880Z,19.24
2024-05-09T06:56:42.531Z,19.13
2024-05-09T06:57:44.982Z,19.46
2024-05-09T06:58:47.492Z,19.66
2024-05-09T06:59:49.915Z,19.74
2024-05-09T07:00:57.827Z,19.74
2024-05-09T07:02:00.274Z,19.96
2024-05-09T07:03:07.728Z,20.16
2024-05-09T07:04:10.729Z,19.88
2024-05-09T07:05:16.253Z,20.14
2024-05-09T07:06:18.710Z,20.43
2024-05-09T07:07:21.154Z,20.72
2024-05-09T07:08:23.681Z,20.53
2024-05-09T07:09:28.892Z,20.74
2024-05-09T07:10:35.154Z,20.86
2024-05-09T07:11:38.614Z,20.94
2024-05-09T07:12:41.170Z,21.10
2024-05-09T07:13:46.320Z,21.17
2024-05-09T07:14:48.756Z,21.46
2024-05-09T07:15:51.269Z,21.67
2024-05-09T07:16:56.937Z,22.06
2024-05-09T07:18:02.344Z,22.20
2024-05-09T07:19:05.021Z,22.54
2024-05-09T07:20:11.814Z,22.80
2024-05-09T07:21:21.217Z,22.96
2024-05-09T07:22:25.565Z,22.76
2024-05-09T07:23:28.560Z,22.81
2024-05-09T07:24:31.386Z,22.42
2024-05-09T07:25:36.513Z,22.25
2024-05-09T07:26:38.942Z,22.42
2024-05-09T07:27:41.490Z,22.32
2024-05-09T07:28:43.955Z,22.08
2024-05-09T07:29:49.010Z,22.19
2024-05-09T07:30:51.428Z,22.41
2024-05-09T07:31:56.544Z,22.75
2024-05-09T07:32:59.407Z,22.92
2024-05-09T07:34:04.656Z,23.08
2024-05-09T07:35:07.527Z,23.39
2024-05-09T07:36:10.048Z,23.62
2024-05-09T07:37:14.037Z,23.73
2024-05-09T07:38:19.335Z,23.38
2024-05-09T07:39:22.965Z,23.21
2024-05-09T07:40:33.005Z,23.24
2024-05-09T07:41:41.976Z,22.93
2024-05-09T07:42:46.226Z,23.04
2024-05-09T07:43:49.070Z,23.06
2024-05-09T07:44:55.503Z,22.98
2024-05-09T07:46:37.814Z,23.12
2024-05-09T07:48:56.964Z,22.75
2024-05-09T07:51:32.964Z,22.87
2024-05-09T07:53:43.290Z,22.54
2024-05-09T07:54:51.972Z,22.44
2024-05-09T07:55:55.995Z,22.60
2024-05-09T07:57:02.063Z,22.40
2024-05-09T07:58:04.916Z,22.61
2024-05-09T07:59:07.355Z,22.59
2024-05-09T08:00:14.329Z,22.68
2024-05-09T08:01:20.116Z,22.55
2024-05-09T08:02:26.327Z,22.54
2024-05-09T08:03:29.396Z,22.62
2024-05-09T08:04:32.085Z,22.71
2024-05-09T08:05:38.320Z,22.75
2024-05-09T08:06:40.804Z,22.77
2024-05-09T08:07:45.329Z,22.81
2024-05-09T08:08:48.003Z,23.04
2024-05-09T08:09:53.157Z,23.06
2024-05-09T08:10:55.843Z,23.24
2024-05-09T08:11:59.301Z,23.37
2024-05-09T08:13:04.534Z,23.50
2024-05-09T08:14:07.203Z,23.42
2024-05-09T08:15:09.614Z,23.45
2024-05-09T08:16:17.249Z,23.40
2024-05-09T08:17:20.013Z,23.24
2024-05-09T08:18:25.284Z,23.18
2024-05-09T08:19:27.833Z,23.13
2024-05-09T08:20:35.302Z,23.37
2024-05-09T08:21:38.226Z,23.44
2024-05-09T08:22:40.666Z,23.39
2024-05-09T08:23:43.092Z,23.59
2024-05-09T08:24:48.592Z,23.80
2024-05-09T08:25:52.973Z,24.41
2024-05-09T08:26:55.404Z,24.86
2024-05-09T08:28:00.621Z,24.83
2024-05-09T08:29:03.256Z,24.23
2024-05-09T08:30:10.181Z,24.88
2024-05-09T08:31:15.396Z,24.69
2024-05-09T08:32:21.167Z,24.78
2024-05-09T08:33:26.411Z,24.77
2024-05-09T08:34:28.988Z,24.64
2024-05-09T08:35:31.956Z,24.45
2024-05-09T08:36:37.362Z,24.66
2024-05-09T08:37:40.706Z,24.90
2024-05-09T08:38:43.358Z,25.47
2024-05-09T08:39:45.821Z,25.85
2024-05-09T08:40:52.021Z,26.33
2024-05-09T08:41:54.567Z,27.00
2024-05-09T08:42:57.905Z,27.49
2024-05-09T08:44:03.389Z,26.41
2024-05-09T08:45:06.769Z,27.05
2024-05-09T08:46:09.464Z,26.89
2024-05-09T08:47:12.041Z,26.99
2024-05-09T08:48:17.326Z,27.26
2024-05-09T08:49:24.555Z,27.91
2024-05-09T08:50:35.489Z,27.84
2024-05-09T08:51:43.745Z,27.18
2024-05-09T08:52:46.401Z,27.21
2024-05-09T08:53:48.982Z,27.81
2024-05-09T08:54:51.714Z,27.96
2024-05-09T08:56:00.184Z,27.98
2024-05-09T08:57:04.716Z,27.92
2024-05-09T08:58:09.325Z,27.39
2024-05-09T08:59:20.397Z,27.85
2024-05-09T09:00:33.457Z,28.38
2024-05-09T09:01:41.753Z,28.98
2024-05-09T09:02:47.870Z,28.01
2024-05-09T09:03:53.679Z,28.83
2024-05-09T09:05:05.506Z,28.91
2024-05-09T09:06:12.385Z,29.24
2024-05-09T09:07:17.822Z,28.80
2024-05-09T09:08:21.588Z,29.36
2024-05-09T09:09:26.779Z,30.52
2024-05-09T09:10:33.330Z,31.22
2024-05-09T09:11:36.150Z,31.92
2024-05-09T09:12:39.091Z,30.60
2024-05-09T09:13:44.301Z,30.25
2024-05-09T09:14:46.890Z,29.33
2024-05-09T09:15:49.811Z,28.53
2024-05-09T09:16:56.625Z,28.31
2024-05-09T09:18:00.206Z,28.23
2024-05-09T09:19:04.365Z,28.32
2024-05-09T09:20:14.424Z,27.21
2024-05-09T09:21:25.037Z,26.48
2024-05-09T09:22:27.504Z,26.30
2024-05-09T09:23:30.720Z,25.80
2024-05-09T09:24:33.901Z,26.45
2024-05-09T09:25:42.538Z,26.05
2024-05-09T09:26:45.886Z,25.96
2024-05-09T09:27:48.528Z,26.53
2024-05-09T09:28:53.820Z,26.96
2024-05-09T09:29:57.370Z,26.77
2024-05-09T09:31:03.543Z,27.07
2024-05-09T09:32:10.728Z,27.67
2024-05-09T09:33:13.306Z,27.53
2024-05-09T09:34:16.144Z,27.47
2024-05-09T09:35:21.339Z,27.22
2024-05-09T09:36:26.490Z,27.99
2024-05-09T09:37:29.805Z,28.12
2024-05-09T09:38:32.642Z,28.51
2024-05-09T09:39:36.639Z,28.35
2024-05-09T09:40:48.643Z,28.24
2024-05-09T09:41:54.121Z,28.81
2024-05-09T09:42:58.217Z,28.67
2024-05-09T09:44:05.390Z,28.50
2024-05-09T09:45:08.246Z,28.58
2024-05-09T09:46:13.774Z,28.89
2024-05-09T09:47:19.163Z,28.24
2024-05-09T09:48:24.909Z,28.03
2024-05-09T09:49:28.025Z,29.24
2024-05-09T09:50:35.527Z,28.09
2024-05-09T09:51:43.734Z,27.86
2024-05-09T09:52:49.539Z,28.42
2024-05-09T09:53:53.171Z,28.66
2024-05-09T09:54:57.616Z,28.45
2024-05-09T09:56:02.189Z,28.68
2024-05-09T09:57:08.100Z,28.38
2024-05-09T09:58:14.061Z,29.31
2024-05-09T09:59:17.509Z,30.12
2024-05-09T10:00:27.441Z,29.12
2024-05-09T10:01:37.875Z,29.18
2024-05-09T10:02:40.786Z,29.24
2024-05-09T10:03:45.598Z,29.81
2024-05-09T10:04:48.471Z,30.42
2024-05-09T10:05:57.388Z,29.45
2024-05-09T10:07:03.382Z,28.87
2024-05-09T10:08:07.821Z,28.33
2024-05-09T10:09:14.319Z,28.40
2024-05-09T10:10:31.887Z,28.43
2024-05-09T10:11:42.068Z,28.77
2024-05-09T10:12:59.030Z,29.69
2024-05-09T10:14:04.252Z,29.73
2024-05-09T10:15:10.123Z,28.71
2024-05-09T10:16:12.725Z,29.64
2024-05-09T10:17:15.411Z,31.20
2024-05-09T10:18:27.227Z,31.19
2024-05-09T10:19:32.142Z,30.66
2024-05-09T10:20:42.676Z,31.52
2024-05-09T10:21:52.171Z,31.66
2024-05-09T10:22:54.713Z,30.95
2024-05-09T10:23:57.914Z,30.21
2024-05-09T10:25:06.120Z,30.68
2024-05-09T10:26:11.220Z,30.48
2024-05-09T10:27:14.126Z,32.09
2024-05-09T10:28:17.085Z,32.07
2024-05-09T10:29:20.263Z,33.15
2024-05-09T10:30:34.102Z,33.61
2024-05-09T10:31:41.307Z,33.73
2024-05-09T10:32:45.351Z,34.46
2024-05-09T10:33:50.866Z,34.95
2024-05-09T10:35:03.648Z,35.10
2024-05-09T10:36:11.976Z,34.72
2024-05-09T10:37:17.882Z,34.93
2024-05-09T10:38:20.469Z,34.14
2024-05-09T10:39:25.883Z,33.62
2024-05-09T10:40:31.697Z,35.02
2024-05-09T10:41:38.115Z,34.86
2024-05-09T10:42:41.976Z,35.33
2024-05-09T10:43:47.728Z,35.48
2024-05-09T10:44:50.582Z,36.22
2024-05-09T10:45:53.355Z,36.11
2024-05-09T10:46:55.945Z,37.29
2024-05-09T10:48:01.422Z,37.75
2024-05-09T10:49:07.739Z,36.01
2024-05-09T10:50:18.531Z,36.78
2024-05-09T10:51:28.036Z,38.64
2024-05-09T10:52:37.876Z,37.22
2024-05-09T10:53:43.599Z,36.68
2024-05-09T10:54:49.380Z,35.24
2024-05-09T10:55:58.966Z,34.50
2024-05-09T10:57:04.168Z,33.94
2024-05-09T10:58:17.563Z,33.86
2024-05-09T10:59:20.411Z,34.24
2024-05-09T11:00:30.692Z,33.42
2024-05-09T11:01:38.920Z,33.74
2024-05-09T11:02:42.046Z,33.57
2024-05-09T11:03:47.929Z,32.61
2024-05-09T11:04:53.334Z,32.62
2024-05-09T11:05:56.370Z,34.15
2024-05-09T11:07:02.838Z,33.75
2024-05-09T11:08:11.176Z,34.48
2024-05-09T11:09:16.487Z,33.73
2024-05-09T11:10:27.287Z,32.87
2024-05-09T11:11:34.603Z,33.52
2024-05-09T11:12:39.990Z,34.91
2024-05-09T11:13:42.963Z,33.31
2024-05-09T11:14:53.498Z,32.78
2024-05-09T11:15:56.174Z,34.12
2024-05-09T11:17:06.297Z,34.46
2024-05-09T11:18:23.505Z,36.67
2024-05-09T11:19:30.908Z,35.60
2024-05-09T11:20:39.198Z,35.42
2024-05-09T11:21:41.811Z,35.65
2024-05-09T11:22:44.904Z,37.39
2024-05-09T11:23:50.464Z,36.32
2024-05-09T11:24:55.760Z,34.23
2024-05-09T11:25:59.060Z,34.68
2024-05-09T11:27:03.899Z,35.11
2024-05-09T11:28:06.845Z,36.18
2024-05-09T11:29:12.239Z,34.85
2024-05-09T11:30:26.685Z,34.17
2024-05-09T11:31:45.754Z,33.41
2024-05-09T11:32:51.330Z,32.77
2024-05-09T11:33:54.927Z,33.23
2024-05-09T11:34:57.957Z,34.92
2024-05-09T11:36:03.256Z,36.42
2024-05-09T11:37:06.226Z,37.28
2024-05-09T11:38:08.866Z,36.83
2024-05-09T11:39:14.991Z,37.02
2024-05-09T11:40:25.489Z,36.00
2024-05-09T11:41:31.571Z,35.65
2024-05-09T11:42:34.320Z,34.13
2024-05-09T11:43:36.826Z,34.26
2024-05-09T11:44:42.015Z,34.72
2024-05-09T11:45:44.589Z,35.69
2024-05-09T11:46:47.264Z,33.72
2024-05-09T11:47:52.863Z,34.13
2024-05-09T11:48:55.721Z,35.92
2024-05-09T11:49:58.714Z,34.78
2024-05-09T11:51:01.817Z,35.60
2024-05-09T11:52:07.935Z,33.38
2024-05-09T11:53:12.714Z,33.65
2024-05-09T11:54:18.030Z,32.34
2024-05-09T11:55:27.384Z,33.40
2024-05-09T11:56:31.309Z,33.30
2024-05-09T11:57:33.764Z,35.50
2024-05-09T11:58:39.533Z,35.08
2024-05-09T11:59:45.463Z,36.28
2024-05-09T12:00:47.939Z,34.84
2024-05-09T12:01:50.714Z,35.00
2024-05-09T12:02:58.205Z,34.69
2024-05-09T12:04:01.211Z,34.93
2024-05-09T12:05:04.745Z,35.00
2024-05-09T12:06:07.614Z,35.65
2024-05-09T12:07:13.384Z,35.59
2024-05-09T12:08:16.135Z,34.81
2024-05-09T12:09:21.504Z,35.15
2024-05-09T12:10:33.051Z,34.22
2024-05-09T12:11:37.988Z,33.87
2024-05-09T12:12:40.618Z,33.75
2024-05-09T12:13:46.130Z,33.10
2024-05-09T12:14:48.862Z,34.28
2024-05-09T12:15:51.683Z,33.68
2024-05-09T12:16:54.582Z,33.81
2024-05-09T12:18:02.805Z,33.39
2024-05-09T12:19:06.677Z,32.87
2024-05-09T12:20:17.498Z,33.19
2024-05-09T12:21:28.562Z,33.47
2024-05-09T12:22:34.111Z,32.02
2024-05-09T12:23:36.642Z,32.23
2024-05-09T12:24:41.851Z,32.06
2024-05-09T12:25:47.708Z,30.93
2024-05-09T12:26:50.892Z,31.14
2024-05-09T12:27:53.542Z,31.36
2024-05-09T12:28:56.105Z,30.91
2024-05-09T12:30:01.488Z,29.95
2024-05-09T12:31:04.565Z,29.41
2024-05-09T12:32:07.652Z,28.91
2024-05-09T12:33:14.387Z,29.07
2024-05-09T12:34:17.103Z,27.99
2024-05-09T12:35:22.610Z,28.40
2024-05-09T12:36:25.016Z,28.42
2024-05-09T12:37:30.489Z,27.61
2024-05-09T12:38:33.190Z,28.43
2024-05-09T12:39:35.725Z,28.00
2024-05-09T12:40:41.345Z,26.80
2024-05-09T12:41:46.457Z,27.01
2024-05-09T12:42:50.414Z,27.41
2024-05-09T12:43:52.851Z,27.97
2024-05-09T12:44:55.280Z,28.00
2024-05-09T12:46:00.914Z,27.99
2024-05-09T12:47:03.570Z,28.16
2024-05-09T12:48:08.647Z,27.17
2024-05-09T12:49:12.713Z,27.18
2024-05-09T12:50:28.771Z,27.24
2024-05-09T12:51:34.768Z,27.13
2024-05-09T12:52:37.387Z,26.59
2024-05-09T12:53:39.989Z,27.22
2024-05-09T12:54:45.196Z,27.07
2024-05-09T12:55:56.837Z,27.57
2024-05-09T12:57:02.777Z,28.02
2024-05-09T12:58:08.973Z,26.06
2024-05-09T12:59:11.896Z,26.30
2024-05-09T13:00:23.482Z,26.80
2024-05-09T13:01:30.919Z,27.04
2024-05-09T13:02:36.350Z,27.12
2024-05-09T13:03:39.081Z,26.94
2024-05-09T13:04:42.252Z,26.92
2024-05-09T13:05:48.274Z,26.77
2024-05-09T13:06:51.282Z,26.87
2024-05-09T13:07:54.135Z,27.04
2024-05-09T13:09:00.258Z,26.12
2024-05-09T13:10:04.637Z,25.67
2024-05-09T13:11:11.480Z,25.76
2024-05-09T13:12:17.262Z,26.45
2024-05-09T13:13:20.557Z,26.68
2024-05-09T13:14:23.504Z,26.75
2024-05-09T13:15:26.754Z,27.20
2024-05-09T13:16:32.359Z,27.15
2024-05-09T13:17:35.116Z,27.17
2024-05-09T13:18:37.759Z,27.13
2024-05-09T13:19:40.523Z,26.62
2024-05-09T13:20:45.922Z,26.96
2024-05-09T13:21:48.587Z,26.35
2024-05-09T13:22:51.371Z,26.23
2024-05-09T13:23:56.886Z,25.89
2024-05-09T13:25:01.346Z,26.14
2024-05-09T13:26:04.208Z,25.62
2024-05-09T13:27:10.269Z,25.91
2024-05-09T13:28:15.741Z,25.84
2024-05-09T13:29:18.622Z,25.65
2024-05-09T13:30:29.250Z,25.67
2024-05-09T13:31:43.228Z,25.65
2024-05-09T13:32:45.937Z,25.44
2024-05-09T13:33:48.713Z,25.17
2024-05-09T13:34:51.551Z,24.90
2024-05-09T13:35:56.916Z,24.93
2024-05-09T13:36:59.700Z,24.84
2024-05-09T13:38:02.712Z,24.98
2024-05-09T13:39:05.251Z,24.10
2024-05-09T13:40:14.238Z,24.23
2024-05-09T13:41:16.975Z,24.04
2024-05-09T13:42:22.143Z,23.97
2024-05-09T13:43:27.530Z,23.77
2024-05-09T13:44:30.251Z,23.86
2024-05-09T13:45:33.281Z,23.77
2024-05-09T13:46:36.786Z,23.75
2024-05-09T13:47:42.262Z,23.68
2024-05-09T13:48:45.043Z,23.36
2024-05-09T13:49:48.505Z,23.14
2024-05-09T13:50:53.641Z,23.16
2024-05-09T13:51:56.290Z,23.11
2024-05-09T13:52:59.499Z,23.27
2024-05-09T13:54:04.620Z,23.04
2024-05-09T13:55:07.766Z,22.91
2024-05-09T13:56:10.552Z,22.60
2024-05-09T13:57:18.486Z,22.53
2024-05-09T13:58:23.992Z,22.44
2024-05-09T13:59:26.793Z,22.23
2024-05-09T14:00:41.989Z,22.36
2024-05-09T14:01:52.739Z,22.44
2024-05-09T14:02:55.512Z,22.27
2024-05-09T14:03:58.177Z,22.26
2024-05-09T14:05:03.602Z,22.24